sensor_id;sensor_type;location;lat;lon;timestamp;pressure;altitude;pressure_sealevel;temperature;humidity
76060;BME280;64759;52.220;5.170;2023-04-03T00:01:04;103055.78;;;5.05;62.84
76060;BME280;64759;52.220;5.170;2023-04-03T00:03:30;103062.72;;;5.03;63.42
76060;BME280;64759;52.220;5.170;2023-04-03T00:05:56;103065.28;;;5.03;62.83
76060;BME280;64759;52.220;5.170;2023-04-03T00:08:22;103062.81;;;5.00;62.90
76060;BME280;64759;52.220;5.170;2023-04-03T00:10:48;103065.31;;;5.01;62.85
76060;BME280;64759;52.220;5.170;2023-04-03T00:13:14;103070.72;;;4.94;63.43
76060;BME280;64759;52.220;5.170;2023-04-03T00:15:40;103064.75;;;4.93;63.26
76060;BME280;64759;52.220;5.170;2023-04-03T00:18:06;103072.59;;;4.89;63.45
76060;BME280;64759;52.220;5.170;2023-04-03T00:20:32;103065.00;;;4.86;63.69
76060;BME280;64759;52.220;5.170;2023-04-03T00:22:58;103070.06;;;4.87;63.73
76060;BME280;64759;52.220;5.170;2023-04-03T00:25:23;103071.91;;;4.84;64.02
76060;BME280;64759;52.220;5.170;2023-04-03T00:27:49;103064.34;;;4.79;63.91
76060;BME280;64759;52.220;5.170;2023-04-03T00:30:17;103067.81;;;4.78;64.43
76060;BME280;64759;52.220;5.170;2023-04-03T00:32:43;103069.69;;;4.73;64.48
76060;BME280;64759;52.220;5.170;2023-04-03T00:35:10;103074.91;;;4.70;64.64
76060;BME280;64759;52.220;5.170;2023-04-03T00:37:36;103077.53;;;4.69;64.32
76060;BME280;64759;52.220;5.170;2023-04-03T00:40:02;103080.97;;;4.69;64.27
76060;BME280;64759;52.220;5.170;2023-04-03T00:42:28;103074.97;;;4.69;64.69
76060;BME280;64759;52.220;5.170;2023-04-03T00:45:22;103069.75;;;4.72;64.88
76060;BME280;64759;52.220;5.170;2023-04-03T00:47:42;103084.34;;;4.70;64.64
76060;BME280;64759;52.220;5.170;2023-04-03T00:50:08;103080.19;;;4.66;64.80
76060;BME280;64759;52.220;5.170;2023-04-03T00:52:34;103073.59;;;4.58;64.44
76060;BME280;64759;52.220;5.170;2023-04-03T00:55:03;103073.81;;;4.51;64.78
76060;BME280;64759;52.220;5.170;2023-04-03T00:57:29;103077.19;;;4.53;65.11
76060;BME280;64759;52.220;5.170;2023-04-03T01:00:00;103079.84;;;4.50;65.30
76060;BME280;64759;52.220;5.170;2023-04-03T01:02:27;103079.88;;;4.48;64.74
76060;BME280;64759;52.220;5.170;2023-04-03T01:04:53;103079.97;;;4.45;65.56
76060;BME280;64759;52.220;5.170;2023-04-03T01:07:22;103084.25;;;4.45;65.07
76060;BME280;64759;52.220;5.170;2023-04-03T01:09:49;103090.44;;;4.39;65.21
76060;BME280;64759;52.220;5.170;2023-04-03T01:12:18;103086.88;;;4.43;64.69
76060;BME280;64759;52.220;5.170;2023-04-03T01:14:46;103087.75;;;4.42;64.98
76060;BME280;64759;52.220;5.170;2023-04-03T01:17:27;103091.31;;;4.38;65.06
76060;BME280;64759;52.220;5.170;2023-04-03T01:25:28;103080.41;;;4.32;65.45
76060;BME280;64759;52.220;5.170;2023-04-03T01:27:55;103081.38;;;4.28;65.72
76060;BME280;64759;52.220;5.170;2023-04-03T01:30:25;103093.50;;;4.23;65.88
76060;BME280;64759;52.220;5.170;2023-04-03T01:32:52;103079.03;;;4.20;66.00
76060;BME280;64759;52.220;5.170;2023-04-03T01:35:18;103086.72;;;4.20;66.17
76060;BME280;64759;52.220;5.170;2023-04-03T01:37:44;103086.88;;;4.16;65.76
76060;BME280;64759;52.220;5.170;2023-04-03T01:40:10;103095.34;;;4.18;66.01
76060;BME280;64759;52.220;5.170;2023-04-03T01:42:35;103086.78;;;4.19;66.27
76060;BME280;64759;52.220;5.170;2023-04-03T01:45:01;103086.06;;;4.15;66.09
76060;BME280;64759;52.220;5.170;2023-04-03T01:47:26;103083.59;;;4.11;66.52
76060;BME280;64759;52.220;5.170;2023-04-03T01:49:52;103091.41;;;4.08;66.45
76060;BME280;64759;52.220;5.170;2023-04-03T01:52:18;103094.84;;;4.07;66.62
76060;BME280;64759;52.220;5.170;2023-04-03T01:54:43;103089.00;;;4.02;66.86
76060;BME280;64759;52.220;5.170;2023-04-03T01:57:09;103083.94;;;4.00;66.64
76060;BME280;64759;52.220;5.170;2023-04-03T01:59:35;103088.31;;;3.96;66.72
76060;BME280;64759;52.220;5.170;2023-04-03T02:02:01;103092.69;;;3.93;67.16
76060;BME280;64759;52.220;5.170;2023-04-03T02:04:26;103088.44;;;3.92;67.08
76060;BME280;64759;52.220;5.170;2023-04-03T02:06:52;103088.53;;;3.89;67.13
76060;BME280;64759;52.220;5.170;2023-04-03T02:09:18;103097.91;;;3.90;67.24
76060;BME280;64759;52.220;5.170;2023-04-03T02:11:43;103098.78;;;3.89;67.09
76060;BME280;64759;52.220;5.170;2023-04-03T02:14:09;103103.03;;;3.90;67.24
76060;BME280;64759;52.220;5.170;2023-04-03T02:16:35;103101.53;;;3.83;67.42
76060;BME280;64759;52.220;5.170;2023-04-03T02:19:00;103096.47;;;3.80;67.32
76060;BME280;64759;52.220;5.170;2023-04-03T02:21:26;103099.06;;;3.78;67.69
76060;BME280;64759;52.220;5.170;2023-04-03T02:23:52;103093.22;;;3.75;68.39
76060;BME280;64759;52.220;5.170;2023-04-03T02:26:18;103094.22;;;3.69;67.77
76060;BME280;64759;52.220;5.170;2023-04-03T02:28:44;103094.13;;;3.72;67.99
76060;BME280;64759;52.220;5.170;2023-04-03T02:31:10;103100.22;;;3.68;68.35
76060;BME280;64759;52.220;5.170;2023-04-03T02:33:38;103098.63;;;3.64;68.52
76060;BME280;64759;52.220;5.170;2023-04-03T02:36:07;103101.19;;;3.64;68.49
76060;BME280;64759;52.220;5.170;2023-04-03T02:38:33;103106.38;;;3.61;68.55
76060;BME280;64759;52.220;5.170;2023-04-03T02:41:08;103110.63;;;3.62;68.50
76060;BME280;64759;52.220;5.170;2023-04-03T02:43:34;103112.41;;;3.60;68.73
76060;BME280;64759;52.220;5.170;2023-04-03T02:45:59;103113.31;;;3.58;68.76
76060;BME280;64759;52.220;5.170;2023-04-03T02:48:25;103112.56;;;3.54;69.05
76060;BME280;64759;52.220;5.170;2023-04-03T02:50:53;103115.28;;;3.48;69.34
76060;BME280;64759;52.220;5.170;2023-04-03T02:53:18;103114.50;;;3.46;69.19
76060;BME280;64759;52.220;5.170;2023-04-03T02:55:45;103119.72;;;3.42;69.45
76060;BME280;64759;52.220;5.170;2023-04-03T02:58:11;103121.59;;;3.35;69.83
76060;BME280;64759;52.220;5.170;2023-04-03T03:00:37;103121.59;;;3.35;69.87
76060;BME280;64759;52.220;5.170;2023-04-03T03:03:03;103122.41;;;3.37;69.70
76060;BME280;64759;52.220;5.170;2023-04-03T03:05:30;103138.75;;;3.33;70.01
76060;BME280;64759;52.220;5.170;2023-04-03T03:07:55;103130.38;;;3.26;70.46
76060;BME280;64759;52.220;5.170;2023-04-03T03:10:21;103137.16;;;3.29;70.60
76060;BME280;64759;52.220;5.170;2023-04-03T03:12:47;103132.03;;;3.27;70.28
76060;BME280;64759;52.220;5.170;2023-04-03T03:15:13;103135.41;;;3.29;70.37
76060;BME280;64759;52.220;5.170;2023-04-03T03:17:38;103134.66;;;3.26;70.45
76060;BME280;64759;52.220;5.170;2023-04-03T03:20:05;103134.78;;;3.21;71.18
76060;BME280;64759;52.220;5.170;2023-04-03T03:22:31;103139.84;;;3.23;70.81
76060;BME280;64759;52.220;5.170;2023-04-03T03:24:57;103146.00;;;3.16;71.45
76060;BME280;64759;52.220;5.170;2023-04-03T03:27:22;103143.31;;;3.20;70.94
76060;BME280;64759;52.220;5.170;2023-04-03T03:29:49;103151.13;;;3.16;71.88
76060;BME280;64759;52.220;5.170;2023-04-03T03:32:16;103142.72;;;3.11;71.65
76060;BME280;64759;52.220;5.170;2023-04-03T03:34:41;103146.91;;;3.13;71.69
76060;BME280;64759;52.220;5.170;2023-04-03T03:37:07;103137.59;;;3.11;72.05
76060;BME280;64759;52.220;5.170;2023-04-03T03:39:33;103146.19;;;3.08;72.14
76060;BME280;64759;52.220;5.170;2023-04-03T03:41:58;103146.25;;;3.07;71.98
76060;BME280;64759;52.220;5.170;2023-04-03T03:44:24;103144.63;;;3.03;72.23
76060;BME280;64759;52.220;5.170;2023-04-03T03:46:49;103141.31;;;2.98;73.05
76060;BME280;64759;52.220;5.170;2023-04-03T03:49:15;103149.78;;;3.00;72.94
76060;BME280;64759;52.220;5.170;2023-04-03T03:51:41;103147.25;;;3.00;72.78
76060;BME280;64759;52.220;5.170;2023-04-03T03:54:07;103142.09;;;3.01;72.66
76060;BME280;64759;52.220;5.170;2023-04-03T03:56:33;103145.50;;;3.02;72.73
76060;BME280;64759;52.220;5.170;2023-04-03T03:58:59;103154.09;;;2.99;73.00
76060;BME280;64759;52.220;5.170;2023-04-03T04:01:25;103147.44;;;2.92;73.05
76060;BME280;64759;52.220;5.170;2023-04-03T04:03:51;103145.69;;;2.94;72.92
76060;BME280;64759;52.220;5.170;2023-04-03T04:06:20;103148.25;;;2.94;72.95
76060;BME280;64759;52.220;5.170;2023-04-03T04:08:47;103148.31;;;2.91;73.58
76060;BME280;64759;52.220;5.170;2023-04-03T04:11:13;103156.00;;;2.91;73.20
76060;BME280;64759;52.220;5.170;2023-04-03T04:13:40;103151.66;;;2.95;73.08
76060;BME280;64759;52.220;5.170;2023-04-03T04:16:08;103157.69;;;2.91;73.35
76060;BME280;64759;52.220;5.170;2023-04-03T04:18:33;103152.59;;;2.91;73.09
76060;BME280;64759;52.220;5.170;2023-04-03T04:20:59;103158.66;;;2.87;73.68
76060;BME280;64759;52.220;5.170;2023-04-03T04:23:25;103158.63;;;2.88;73.65
76060;BME280;64759;52.220;5.170;2023-04-03T04:25:51;103168.00;;;2.89;73.41
76060;BME280;64759;52.220;5.170;2023-04-03T04:28:18;103163.06;;;2.80;74.00
76060;BME280;64759;52.220;5.170;2023-04-03T04:30:46;103171.63;;;2.79;74.21
76060;BME280;64759;52.220;5.170;2023-04-03T04:33:12;103157.13;;;2.78;74.17
76060;BME280;64759;52.220;5.170;2023-04-03T04:35:41;103157.03;;;2.83;73.45
76060;BME280;64759;52.220;5.170;2023-04-03T04:38:07;103157.13;;;2.80;73.97
76060;BME280;64759;52.220;5.170;2023-04-03T04:40:34;103154.69;;;2.75;74.02
76060;BME280;64759;52.220;5.170;2023-04-03T04:42:59;103158.09;;;2.74;73.96
76060;BME280;64759;52.220;5.170;2023-04-03T04:45:25;103158.97;;;2.73;74.23
76060;BME280;64759;52.220;5.170;2023-04-03T04:47:50;103152.19;;;2.71;74.31
76060;BME280;64759;52.220;5.170;2023-04-03T04:50:17;103158.88;;;2.78;74.00
76060;BME280;64759;52.220;5.170;2023-04-03T04:52:43;103167.47;;;2.74;73.77
76060;BME280;64759;52.220;5.170;2023-04-03T04:55:09;103177.09;;;2.64;74.87
76060;BME280;64759;52.220;5.170;2023-04-03T04:57:35;103168.66;;;2.59;74.89
76060;BME280;64759;52.220;5.170;2023-04-03T05:00:02;103174.56;;;2.62;74.33
76060;BME280;64759;52.220;5.170;2023-04-03T05:02:30;103169.47;;;2.62;74.33
76060;BME280;64759;52.220;5.170;2023-04-03T05:04:56;103166.84;;;2.64;74.52
76060;BME280;64759;52.220;5.170;2023-04-03T05:07:26;103171.13;;;2.63;75.03
76060;BME280;64759;52.220;5.170;2023-04-03T05:09:52;103177.03;;;2.65;74.88
76060;BME280;64759;52.220;5.170;2023-04-03T05:12:17;103174.53;;;2.64;74.68
76060;BME280;64759;52.220;5.170;2023-04-03T05:14:48;103177.88;;;2.66;74.68
76060;BME280;64759;52.220;5.170;2023-04-03T05:17:15;103185.59;;;2.64;74.21
76060;BME280;64759;52.220;5.170;2023-04-03T05:19:47;103184.88;;;2.59;74.76
76060;BME280;64759;52.220;5.170;2023-04-03T05:22:14;103194.28;;;2.57;74.44
76060;BME280;64759;52.220;5.170;2023-04-03T05:24:41;103202.94;;;2.52;74.72
76060;BME280;64759;52.220;5.170;2023-04-03T05:27:07;103197.84;;;2.50;74.70
76060;BME280;64759;52.220;5.170;2023-04-03T05:29:38;103201.28;;;2.49;74.86
76060;BME280;64759;52.220;5.170;2023-04-03T05:32:04;103195.31;;;2.50;74.67
76060;BME280;64759;52.220;5.170;2023-04-03T05:34:30;103205.59;;;2.47;74.58
76060;BME280;64759;52.220;5.170;2023-04-03T05:36:56;103211.56;;;2.48;74.59
76060;BME280;64759;52.220;5.170;2023-04-03T05:39:21;103209.75;;;2.51;74.98
76060;BME280;64759;52.220;5.170;2023-04-03T05:41:48;103200.41;;;2.50;74.49
76060;BME280;64759;52.220;5.170;2023-04-03T05:44:13;103204.63;;;2.51;74.13
76060;BME280;64759;52.220;5.170;2023-04-03T05:46:40;103216.56;;;2.52;74.28
76060;BME280;64759;52.220;5.170;2023-04-03T05:49:08;103220.03;;;2.48;74.52
76060;BME280;64759;52.220;5.170;2023-04-03T05:51:36;103218.38;;;2.46;74.62
76060;BME280;64759;52.220;5.170;2023-04-03T05:54:28;103220.94;;;2.47;74.54
76060;BME280;64759;52.220;5.170;2023-04-03T05:57:03;103213.19;;;2.50;74.82
76060;BME280;64759;52.220;5.170;2023-04-03T05:59:29;103211.09;;;2.69;74.39
76060;BME280;64759;52.220;5.170;2023-04-03T06:01:57;103202.72;;;2.99;73.58
76060;BME280;64759;52.220;5.170;2023-04-03T06:04:23;103210.38;;;3.36;72.39
76060;BME280;64759;52.220;5.170;2023-04-03T06:06:54;103213.63;;;3.43;71.69
76060;BME280;64759;52.220;5.170;2023-04-03T06:09:23;103214.78;;;3.31;71.83
76060;BME280;64759;52.220;5.170;2023-04-03T06:11:50;103215.75;;;3.25;71.84
76060;BME280;64759;52.220;5.170;2023-04-03T06:14:18;103224.13;;;3.32;72.31
76060;BME280;64759;52.220;5.170;2023-04-03T06:16:44;103226.84;;;3.60;71.66
76060;BME280;64759;52.220;5.170;2023-04-03T06:19:10;103216.47;;;3.96;71.32
76060;BME280;64759;52.220;5.170;2023-04-03T06:21:41;103225.41;;;4.43;69.58
76060;BME280;64759;52.220;5.170;2023-04-03T06:24:07;103224.81;;;4.92;68.30
76060;BME280;64759;52.220;5.170;2023-04-03T06:26:33;103229.00;;;5.22;65.78
76060;BME280;64759;52.220;5.170;2023-04-03T06:28:59;103221.97;;;5.54;65.28
76060;BME280;64759;52.220;5.170;2023-04-03T06:31:26;103226.31;;;5.52;64.60
76060;BME280;64759;52.220;5.170;2023-04-03T06:33:53;103228.25;;;5.96;64.00
76060;BME280;64759;52.220;5.170;2023-04-03T06:36:19;103230.56;;;6.04;62.76
76060;BME280;64759;52.220;5.170;2023-04-03T06:38:46;103228.91;;;5.76;63.13
76060;BME280;64759;52.220;5.170;2023-04-03T06:41:12;103236.59;;;5.52;63.66
76060;BME280;64759;52.220;5.170;2023-04-03T06:43:37;103237.03;;;5.64;63.20
76060;BME280;64759;52.220;5.170;2023-04-03T06:46:03;103240.81;;;5.79;62.70
76060;BME280;64759;52.220;5.170;2023-04-03T06:48:28;103242.16;;;5.90;61.65
76060;BME280;64759;52.220;5.170;2023-04-03T06:50:54;103244.59;;;6.18;61.35
76060;BME280;64759;52.220;5.170;2023-04-03T06:53:20;103252.06;;;6.26;61.36
76060;BME280;64759;52.220;5.170;2023-04-03T06:55:46;103257.44;;;6.43;61.08
76060;BME280;64759;52.220;5.170;2023-04-03T06:58:12;103254.75;;;6.46;60.73
76060;BME280;64759;52.220;5.170;2023-04-03T07:00:39;103264.44;;;6.61;60.05
76060;BME280;64759;52.220;5.170;2023-04-03T07:03:04;103273.25;;;6.55;59.34
76060;BME280;64759;52.220;5.170;2023-04-03T07:05:30;103268.78;;;6.61;59.88
76060;BME280;64759;52.220;5.170;2023-04-03T07:07:56;103271.84;;;6.47;60.53
76060;BME280;64759;52.220;5.170;2023-04-03T07:10:22;103272.47;;;6.30;60.32
76060;BME280;64759;52.220;5.170;2023-04-03T07:12:48;103269.28;;;6.24;60.02
76060;BME280;64759;52.220;5.170;2023-04-03T07:15:14;103277.34;;;6.38;59.75
76060;BME280;64759;52.220;5.170;2023-04-03T07:17:40;103275.53;;;6.40;60.17
76060;BME280;64759;52.220;5.170;2023-04-03T07:20:06;103271.28;;;6.39;60.08
76060;BME280;64759;52.220;5.170;2023-04-03T07:22:32;103281.75;;;6.57;59.39
76060;BME280;64759;52.220;5.170;2023-04-03T07:24:58;103287.53;;;6.86;59.08
76060;BME280;64759;52.220;5.170;2023-04-03T07:27:24;103278.75;;;7.13;58.01
76060;BME280;64759;52.220;5.170;2023-04-03T07:29:51;103281.47;;;7.10;57.41
76060;BME280;64759;52.220;5.170;2023-04-03T07:32:24;103281.59;;;7.29;57.41
76060;BME280;64759;52.220;5.170;2023-04-03T07:34:50;103277.78;;;7.79;55.89
76060;BME280;64759;52.220;5.170;2023-04-03T07:37:15;103281.19;;;8.00;55.66
76060;BME280;64759;52.220;5.170;2023-04-03T07:39:43;103285.16;;;8.08;53.47
76060;BME280;64759;52.220;5.170;2023-04-03T07:42:10;103278.06;;;8.13;53.62
76060;BME280;64759;52.220;5.170;2023-04-03T07:44:35;103284.81;;;7.75;53.63
76060;BME280;64759;52.220;5.170;2023-04-03T07:47:01;103284.94;;;7.72;55.16
76060;BME280;64759;52.220;5.170;2023-04-03T07:49:27;103275.03;;;7.83;54.09
76060;BME280;64759;52.220;5.170;2023-04-03T07:51:52;103282.63;;;8.07;52.84
76060;BME280;64759;52.220;5.170;2023-04-03T07:54:18;103274.31;;;8.00;53.19
76060;BME280;64759;52.220;5.170;2023-04-03T07:56:46;103287.13;;;7.81;53.83
76060;BME280;64759;52.220;5.170;2023-04-03T07:59:11;103289.84;;;7.99;53.38
76060;BME280;64759;52.220;5.170;2023-04-03T08:01:37;103291.13;;;8.29;52.38
76060;BME280;64759;52.220;5.170;2023-04-03T08:04:03;103289.91;;;8.37;52.53
76060;BME280;64759;52.220;5.170;2023-04-03T08:06:31;103290.94;;;8.33;51.36
76060;BME280;64759;52.220;5.170;2023-04-03T08:08:59;103296.69;;;7.79;51.70
76060;BME280;64759;52.220;5.170;2023-04-03T08:11:24;103297.56;;;7.99;51.62
76060;BME280;64759;52.220;5.170;2023-04-03T08:13:51;103301.22;;;8.35;50.95
76060;BME280;64759;52.220;5.170;2023-04-03T08:16:18;103305.84;;;8.84;50.48
76060;BME280;64759;52.220;5.170;2023-04-03T08:18:45;103314.16;;;9.27;48.29
76060;BME280;64759;52.220;5.170;2023-04-03T08:21:12;103318.03;;;8.99;47.97
76060;BME280;64759;52.220;5.170;2023-04-03T08:23:38;103313.53;;;8.86;47.68
76060;BME280;64759;52.220;5.170;2023-04-03T08:26:12;103312.16;;;9.14;47.21
76060;BME280;64759;52.220;5.170;2023-04-03T08:28:39;103308.88;;;9.30;47.05
76060;BME280;64759;52.220;5.170;2023-04-03T08:31:06;103306.28;;;9.30;46.24
76060;BME280;64759;52.220;5.170;2023-04-03T08:33:33;103308.34;;;9.04;46.21
76060;BME280;64759;52.220;5.170;2023-04-03T08:36:01;103320.22;;;9.08;46.66
76060;BME280;64759;52.220;5.170;2023-04-03T08:38:26;103317.28;;;9.16;45.16
76060;BME280;64759;52.220;5.170;2023-04-03T08:41:05;103317.41;;;8.94;45.58
76060;BME280;64759;52.220;5.170;2023-04-03T08:43:54;103315.09;;;9.26;45.48
76060;BME280;64759;52.220;5.170;2023-04-03T08:46:23;103319.47;;;9.06;46.00
76060;BME280;64759;52.220;5.170;2023-04-03T08:48:51;103317.47;;;9.30;43.98
76060;BME280;64759;52.220;5.170;2023-04-03T08:51:20;103318.97;;;9.70;44.57
76060;BME280;64759;52.220;5.170;2023-04-03T08:54:06;103324.03;;;10.06;40.80
76060;BME280;64759;52.220;5.170;2023-04-03T08:56:41;103324.00;;;10.07;41.65
76060;BME280;64759;52.220;5.170;2023-04-03T08:59:12;103317.38;;;10.67;39.29
76060;BME280;64759;52.220;5.170;2023-04-03T09:01:40;103321.44;;;10.40;40.48
76060;BME280;64759;52.220;5.170;2023-04-03T09:04:14;103318.66;;;10.91;38.69
76060;BME280;64759;52.220;5.170;2023-04-03T09:06:43;103322.84;;;10.94;38.02
76060;BME280;64759;52.220;5.170;2023-04-03T09:11:54;103321.16;;;10.77;37.23
76060;BME280;64759;52.220;5.170;2023-04-03T09:14:31;103321.41;;;11.04;37.59
76060;BME280;64759;52.220;5.170;2023-04-03T09:17:03;103309.63;;;11.30;36.57
76060;BME280;64759;52.220;5.170;2023-04-03T09:21:57;103296.44;;;11.48;34.44
76060;BME280;64759;52.220;5.170;2023-04-03T09:24:24;103297.97;;;11.66;34.10
76060;BME280;64759;52.220;5.170;2023-04-03T09:26:57;103295.78;;;12.18;33.03
76060;BME280;64759;52.220;5.170;2023-04-03T09:29:25;103297.53;;;12.18;31.08
76060;BME280;64759;52.220;5.170;2023-04-03T09:32:02;103301.59;;;12.22;30.32
76060;BME280;64759;52.220;5.170;2023-04-03T09:34:38;103300.59;;;11.96;30.49
76060;BME280;64759;52.220;5.170;2023-04-03T09:37:06;103295.16;;;11.71;30.65
76060;BME280;64759;52.220;5.170;2023-04-03T09:39:49;103285.81;;;11.97;30.14
76060;BME280;64759;52.220;5.170;2023-04-03T09:42:19;103286.94;;;12.07;30.82
76060;BME280;64759;52.220;5.170;2023-04-03T09:44:57;103296.88;;;12.14;29.78
76060;BME280;64759;52.220;5.170;2023-04-03T09:47:33;103290.56;;;12.46;29.93
76060;BME280;64759;52.220;5.170;2023-04-03T09:52:38;103280.00;;;12.50;29.25
76060;BME280;64759;52.220;5.170;2023-04-03T09:55:25;103280.94;;;12.75;29.28
76060;BME280;64759;52.220;5.170;2023-04-03T09:58:01;103270.13;;;12.69;28.87
76060;BME280;64759;52.220;5.170;2023-04-03T10:00:35;103273.22;;;12.47;28.83
76060;BME280;64759;52.220;5.170;2023-04-03T10:03:00;103266.09;;;12.08;29.04
76060;BME280;64759;52.220;5.170;2023-04-03T10:05:33;103258.75;;;12.84;28.72
76060;BME280;64759;52.220;5.170;2023-04-03T10:08:23;103251.00;;;12.96;28.06
76060;BME280;64759;52.220;5.170;2023-04-03T10:11:12;103259.00;;;12.93;27.48
76060;BME280;64759;52.220;5.170;2023-04-03T10:14:00;103254.53;;;12.95;27.66
76060;BME280;64759;52.220;5.170;2023-04-03T10:16:35;103255.56;;;13.07;28.41
76060;BME280;64759;52.220;5.170;2023-04-03T10:19:15;103243.88;;;13.27;25.65
76060;BME280;64759;52.220;5.170;2023-04-03T10:24:26;103241.53;;;12.69;24.85
76060;BME280;64759;52.220;5.170;2023-04-03T10:27:11;103242.88;;;12.48;25.16
76060;BME280;64759;52.220;5.170;2023-04-03T10:30:17;103232.50;;;12.74;24.30
76060;BME280;64759;52.220;5.170;2023-04-03T10:32:59;103233.59;;;12.29;24.92
76060;BME280;64759;52.220;5.170;2023-04-03T10:38:31;103228.69;;;12.80;24.68
76060;BME280;64759;52.220;5.170;2023-04-03T10:41:22;103235.94;;;13.01;24.96
76060;BME280;64759;52.220;5.170;2023-04-03T10:46:49;103218.78;;;12.72;25.31
76060;BME280;64759;52.220;5.170;2023-04-03T10:49:47;103216.25;;;12.97;25.61
76060;BME280;64759;52.220;5.170;2023-04-03T10:52:23;103208.38;;;13.26;25.71
76060;BME280;64759;52.220;5.170;2023-04-03T10:57:32;103208.63;;;13.08;25.90
76060;BME280;64759;52.220;5.170;2023-04-03T11:00:07;103217.03;;;13.51;24.91
76060;BME280;64759;52.220;5.170;2023-04-03T11:02:48;103213.16;;;13.19;24.40
76060;BME280;64759;52.220;5.170;2023-04-03T11:05:47;103225.16;;;12.40;25.11
76060;BME280;64759;52.220;5.170;2023-04-03T11:10:54;103211.75;;;12.87;25.18
76060;BME280;64759;52.220;5.170;2023-04-03T11:14:01;103217.69;;;12.89;25.12
76060;BME280;64759;52.220;5.170;2023-04-03T11:16:30;103204.50;;;12.92;24.97
76060;BME280;64759;52.220;5.170;2023-04-03T11:19:02;103212.19;;;12.93;24.62
76060;BME280;64759;52.220;5.170;2023-04-03T11:21:36;103213.72;;;13.10;24.84
76060;BME280;64759;52.220;5.170;2023-04-03T11:24:05;103213.94;;;13.46;25.07
76060;BME280;64759;52.220;5.170;2023-04-03T11:26:39;103207.03;;;13.96;24.79
76060;BME280;64759;52.220;5.170;2023-04-03T11:29:14;103201.91;;;14.19;24.90
76060;BME280;64759;52.220;5.170;2023-04-03T11:34:30;103194.31;;;13.28;24.66
76060;BME280;64759;52.220;5.170;2023-04-03T11:37:05;103194.09;;;13.19;25.43
76060;BME280;64759;52.220;5.170;2023-04-03T11:39:37;103187.13;;;13.32;25.72
76060;BME280;64759;52.220;5.170;2023-04-03T11:42:25;103191.06;;;13.25;25.04
76060;BME280;64759;52.220;5.170;2023-04-03T11:47:55;103192.91;;;12.57;26.34
76060;BME280;64759;52.220;5.170;2023-04-03T12:05:56;103173.31;;;12.92;26.11
76060;BME280;64759;52.220;5.170;2023-04-03T12:08:29;103161.25;;;13.03;26.02
76060;BME280;64759;52.220;5.170;2023-04-03T12:29:33;103130.34;;;12.19;26.41
76060;BME280;64759;52.220;5.170;2023-04-03T12:46:47;103112.66;;;12.91;26.87
76060;BME280;64759;52.220;5.170;2023-04-03T12:49:41;103115.44;;;12.88;27.33
76060;BME280;64759;52.220;5.170;2023-04-03T12:52:30;103099.53;;;12.54;27.49
76060;BME280;64759;52.220;5.170;2023-04-03T12:55:00;103107.53;;;12.24;28.23
76060;BME280;64759;52.220;5.170;2023-04-03T12:57:30;103096.91;;;12.41;28.33
76060;BME280;64759;52.220;5.170;2023-04-03T12:59:58;103099.50;;;12.68;27.15
76060;BME280;64759;52.220;5.170;2023-04-03T13:02:31;103095.59;;;12.48;27.31
76060;BME280;64759;52.220;5.170;2023-04-03T13:05:05;103100.97;;;12.72;27.40
76060;BME280;64759;52.220;5.170;2023-04-03T13:07:34;103091.44;;;12.58;27.05
76060;BME280;64759;52.220;5.170;2023-04-03T13:10:22;103076.47;;;12.49;28.03
76060;BME280;64759;52.220;5.170;2023-04-03T13:12:56;103081.81;;;12.60;27.55
76060;BME280;64759;52.220;5.170;2023-04-03T13:15:28;103082.78;;;12.84;27.76
76060;BME280;64759;52.220;5.170;2023-04-03T13:17:56;103097.06;;;13.04;28.03
76060;BME280;64759;52.220;5.170;2023-04-03T13:20:28;103093.34;;;12.69;27.34
76060;BME280;64759;52.220;5.170;2023-04-03T13:23:07;103083.78;;;12.69;27.53
76060;BME280;64759;52.220;5.170;2023-04-03T13:25:37;103086.09;;;12.74;28.14
76060;BME280;64759;52.220;5.170;2023-04-03T13:28:07;103085.69;;;12.80;27.03
76060;BME280;64759;52.220;5.170;2023-04-03T13:30:37;103074.38;;;12.93;26.86
76060;BME280;64759;52.220;5.170;2023-04-03T13:33:06;103078.41;;;12.97;27.47
76060;BME280;64759;52.220;5.170;2023-04-03T13:35:43;103088.06;;;12.83;27.32
76060;BME280;64759;52.220;5.170;2023-04-03T13:38:26;103095.84;;;12.58;27.87
76060;BME280;64759;52.220;5.170;2023-04-03T13:40:58;103075.84;;;12.45;27.99
76060;BME280;64759;52.220;5.170;2023-04-03T13:43:34;103071.03;;;12.79;28.34
76060;BME280;64759;52.220;5.170;2023-04-03T13:48:41;103067.22;;;12.97;28.06
76060;BME280;64759;52.220;5.170;2023-04-03T13:53:51;103063.22;;;12.39;28.91
76060;BME280;64759;52.220;5.170;2023-04-03T14:01:45;103069.69;;;12.46;28.08
76060;BME280;64759;52.220;5.170;2023-04-03T14:04:19;103066.72;;;12.53;27.87
76060;BME280;64759;52.220;5.170;2023-04-03T14:06:47;103063.44;;;12.36;28.02
76060;BME280;64759;52.220;5.170;2023-04-03T14:09:13;103055.63;;;12.10;29.08
76060;BME280;64759;52.220;5.170;2023-04-03T14:11:39;103059.63;;;12.15;28.48
76060;BME280;64759;52.220;5.170;2023-04-03T14:14:29;103053.38;;;12.18;28.61
76060;BME280;64759;52.220;5.170;2023-04-03T14:16:58;103057.00;;;12.42;28.46
76060;BME280;64759;52.220;5.170;2023-04-03T14:19:34;103048.03;;;12.60;28.04
76060;BME280;64759;52.220;5.170;2023-04-03T14:22:11;103046.22;;;12.21;28.44
76060;BME280;64759;52.220;5.170;2023-04-03T14:24:37;103042.09;;;12.31;29.36
76060;BME280;64759;52.220;5.170;2023-04-03T14:27:14;103039.09;;;12.25;29.46
76060;BME280;64759;52.220;5.170;2023-04-03T14:29:41;103029.97;;;12.05;30.09
76060;BME280;64759;52.220;5.170;2023-04-03T14:32:06;103031.97;;;12.14;29.95
76060;BME280;64759;52.220;5.170;2023-04-03T14:34:32;103027.00;;;12.24;29.46
76060;BME280;64759;52.220;5.170;2023-04-03T14:36:57;103029.78;;;12.08;29.71
76060;BME280;64759;52.220;5.170;2023-04-03T14:39:23;103029.22;;;12.30;29.96
76060;BME280;64759;52.220;5.170;2023-04-03T14:41:49;103024.81;;;12.18;30.71